sensor_id;sensor_type;location;lat;lon;timestamp;pressure;altitude;pressure_sealevel;temperature
82774;BMP280;72508;45.118;20.728;2023-12-14T00:01:26;99227.94;;;12.08
82774;BMP280;72508;45.118;20.728;2023-12-14T00:11:28;99278.97;;;11.95
82774;BMP280;72508;45.118;20.728;2023-12-14T00:21:30;99262.16;;;11.96
82774;BMP280;72508;45.118;20.728;2023-12-14T00:31:32;99265.09;;;12.00
82774;BMP280;72508;45.118;20.728;2023-12-14T00:41:33;99279.25;;;11.99
82774;BMP280;72508;45.118;20.728;2023-12-14T00:51:37;99310.50;;;12.00
82774;BMP280;72508;45.118;20.728;2023-12-14T01:01:40;99314.44;;;12.03
82774;BMP280;72508;45.118;20.728;2023-12-14T01:11:42;99324.72;;;12.04
82774;BMP280;72508;45.118;20.728;2023-12-14T01:21:44;99334.22;;;12.11
82774;BMP280;72508;45.118;20.728;2023-12-14T01:31:45;99333.09;;;12.01
82774;BMP280;72508;45.118;20.728;2023-12-14T01:41:47;99300.72;;;11.96
82774;BMP280;72508;45.118;20.728;2023-12-14T01:51:50;99228.72;;;12.08
82774;BMP280;72508;45.118;20.728;2023-12-14T02:01:53;99215.59;;;12.08
82774;BMP280;72508;45.118;20.728;2023-12-14T02:11:57;99232.81;;;11.99
82774;BMP280;72508;45.118;20.728;2023-12-14T02:21:59;99218.09;;;11.93
82774;BMP280;72508;45.118;20.728;2023-12-14T02:32:00;99246.34;;;11.64
82774;BMP280;72508;45.118;20.728;2023-12-14T02:42:02;99250.28;;;11.66
82774;BMP280;72508;45.118;20.728;2023-12-14T02:52:04;99201.13;;;11.79
82774;BMP280;72508;45.118;20.728;2023-12-14T03:02:06;99230.34;;;11.65
82774;BMP280;72508;45.118;20.728;2023-12-14T03:12:08;99276.50;;;11.66
82774;BMP280;72508;45.118;20.728;2023-12-14T03:22:10;99310.06;;;11.64
82774;BMP280;72508;45.118;20.728;2023-12-14T03:32:11;99323.91;;;11.60
82774;BMP280;72508;45.118;20.728;2023-12-14T03:42:13;99339.44;;;11.66
82774;BMP280;72508;45.118;20.728;2023-12-14T03:52:15;99371.44;;;11.85
82774;BMP280;72508;45.118;20.728;2023-12-14T04:02:17;99361.22;;;11.84
82774;BMP280;72508;45.118;20.728;2023-12-14T04:12:19;99363.03;;;12.05
82774;BMP280;72508;45.118;20.728;2023-12-14T04:22:20;99367.31;;;12.12
82774;BMP280;72508;45.118;20.728;2023-12-14T04:32:22;99409.31;;;12.12
82774;BMP280;72508;45.118;20.728;2023-12-14T04:42:24;99371.66;;;12.23
82774;BMP280;72508;45.118;20.728;2023-12-14T04:52:25;99371.28;;;12.36
82774;BMP280;72508;45.118;20.728;2023-12-14T05:02:27;99356.47;;;12.30
82774;BMP280;72508;45.118;20.728;2023-12-14T05:12:29;99401.41;;;12.34
82774;BMP280;72508;45.118;20.728;2023-12-14T05:22:32;99403.41;;;12.48
82774;BMP280;72508;45.118;20.728;2023-12-14T05:32:34;99443.94;;;12.30
82774;BMP280;72508;45.118;20.728;2023-12-14T05:42:36;99448.06;;;12.48
82774;BMP280;72508;45.118;20.728;2023-12-14T05:52:38;99449.22;;;12.58
82774;BMP280;72508;45.118;20.728;2023-12-14T06:02:42;99446.91;;;12.39
82774;BMP280;72508;45.118;20.728;2023-12-14T06:12:43;99454.38;;;12.47
82774;BMP280;72508;45.118;20.728;2023-12-14T06:22:45;99491.13;;;12.47
82774;BMP280;72508;45.118;20.728;2023-12-14T06:32:46;99496.44;;;12.30
82774;BMP280;72508;45.118;20.728;2023-12-14T06:42:48;99533.03;;;12.37
82774;BMP280;72508;45.118;20.728;2023-12-14T06:52:51;99556.16;;;12.40
82774;BMP280;72508;45.118;20.728;2023-12-14T07:02:52;99546.03;;;12.49
82774;BMP280;72508;45.118;20.728;2023-12-14T07:13:14;99554.78;;;12.55
82774;BMP280;72508;45.118;20.728;2023-12-14T07:23:36;99563.06;;;12.46
82774;BMP280;72508;45.118;20.728;2023-12-14T07:33:39;99584.34;;;12.45
82774;BMP280;72508;45.118;20.728;2023-12-14T07:43:42;99577.25;;;12.45
82774;BMP280;72508;45.118;20.728;2023-12-14T07:53:44;99578.41;;;12.55
82774;BMP280;72508;45.118;20.728;2023-12-14T08:03:51;99583.84;;;12.48
82774;BMP280;72508;45.118;20.728;2023-12-14T08:13:53;99598.75;;;12.42
82774;BMP280;72508;45.118;20.728;2023-12-14T08:23:55;99603.00;;;12.48
82774;BMP280;72508;45.118;20.728;2023-12-14T08:34:00;99632.16;;;12.47
82774;BMP280;72508;45.118;20.728;2023-12-14T08:44:05;99664.47;;;12.47
82774;BMP280;72508;45.118;20.728;2023-12-14T08:54:07;99664.47;;;12.47
82774;BMP280;72508;45.118;20.728;2023-12-14T09:04:09;99671.25;;;12.43
82774;BMP280;72508;45.118;20.728;2023-12-14T09:14:10;99696.63;;;12.55
82774;BMP280;72508;45.118;20.728;2023-12-14T09:24:16;99700.81;;;12.56
82774;BMP280;72508;45.118;20.728;2023-12-14T09:34:18;99691.94;;;12.57
82774;BMP280;72508;45.118;20.728;2023-12-14T09:44:20;99704.09;;;12.63
82774;BMP280;72508;45.118;20.728;2023-12-14T09:54:27;99679.06;;;12.38
82774;BMP280;72508;45.118;20.728;2023-12-14T10:04:38;99680.56;;;12.51
82774;BMP280;72508;45.118;20.728;2023-12-14T10:14:43;99674.50;;;12.50
82774;BMP280;72508;45.118;20.728;2023-12-14T10:24:51;99700.91;;;12.61
82774;BMP280;72508;45.118;20.728;2023-12-14T10:34:54;99733.56;;;12.65
82774;BMP280;72508;45.118;20.728;2023-12-14T10:44:56;99752.47;;;12.67
82774;BMP280;72508;45.118;20.728;2023-12-14T10:55:03;99762.97;;;12.67
82774;BMP280;72508;45.118;20.728;2023-12-14T11:05:07;99768.25;;;12.67
82774;BMP280;72508;45.118;20.728;2023-12-14T11:15:34;99770.34;;;12.65
82774;BMP280;72508;45.118;20.728;2023-12-14T11:25:43;99755.22;;;12.72
82774;BMP280;72508;45.118;20.728;2023-12-14T11:35:46;99774.13;;;12.74
82774;BMP280;72508;45.118;20.728;2023-12-14T11:45:49;99769.84;;;12.68
82774;BMP280;72508;45.118;20.728;2023-12-14T11:55:52;99783.09;;;12.73
82774;BMP280;72508;45.118;20.728;2023-12-14T12:05:55;99792.47;;;12.86
82774;BMP280;72508;45.118;20.728;2023-12-14T12:15:58;99786.41;;;12.85
82774;BMP280;72508;45.118;20.728;2023-12-14T12:26:00;99781.78;;;12.76
82774;BMP280;72508;45.118;20.728;2023-12-14T12:36:07;99787.53;;;12.72
82774;BMP280;72508;45.118;20.728;2023-12-14T12:46:09;99794.22;;;12.63
82774;BMP280;72508;45.118;20.728;2023-12-14T12:56:12;99817.13;;;12.68
82774;BMP280;72508;45.118;20.728;2023-12-14T13:06:13;99830.66;;;12.60
82774;BMP280;72508;45.118;20.728;2023-12-14T13:16:16;99836.41;;;12.57
82774;BMP280;72508;45.118;20.728;2023-12-14T13:26:18;99843.25;;;12.58
82774;BMP280;72508;45.118;20.728;2023-12-14T13:36:21;99843.03;;;12.59
82774;BMP280;72508;45.118;20.728;2023-12-14T13:46:23;99870.91;;;12.48
82774;BMP280;72508;45.118;20.728;2023-12-14T13:56:24;99884.63;;;12.50
82774;BMP280;72508;45.118;20.728;2023-12-14T14:06:27;99883.19;;;12.60
82774;BMP280;72508;45.118;20.728;2023-12-14T14:16:29;99927.31;;;12.58
82774;BMP280;72508;45.118;20.728;2023-12-14T14:26:33;99940.41;;;12.69
82774;BMP280;72508;45.118;20.728;2023-12-14T14:36:35;99951.78;;;12.58
82774;BMP280;72508;45.118;20.728;2023-12-14T14:46:36;99989.44;;;12.64
82774;BMP280;72508;45.118;20.728;2023-12-14T15:07:07;99995.63;;;12.58
82774;BMP280;72508;45.118;20.728;2023-12-14T15:17:10;99984.13;;;12.47
82774;BMP280;72508;45.118;20.728;2023-12-14T15:27:12;100024.44;;;12.52
82774;BMP280;72508;45.118;20.728;2023-12-14T15:37:17;100035.81;;;12.46
82774;BMP280;72508;45.118;20.728;2023-12-14T15:47:19;100049.00;;;12.35
82774;BMP280;72508;45.118;20.728;2023-12-14T15:57:22;100079.72;;;12.34
82774;BMP280;72508;45.118;20.728;2023-12-14T16:07:33;100093.66;;;12.23
82774;BMP280;72508;45.118;20.728;2023-12-14T16:17:39;100100.34;;;12.19
82774;BMP280;72508;45.118;20.728;2023-12-14T16:27:40;100110.78;;;12.14
82774;BMP280;72508;45.118;20.728;2023-12-14T16:37:43;100116.53;;;12.04
82774;BMP280;72508;45.118;20.728;2023-12-14T16:47:45;100143.06;;;12.02
82774;BMP280;72508;45.118;20.728;2023-12-14T16:57:46;100157.28;;;11.95
82774;BMP280;72508;45.118;20.728;2023-12-14T17:07:48;100138.25;;;11.88
82774;BMP280;72508;45.118;20.728;2023-12-14T17:17:50;100148.63;;;11.94
82774;BMP280;72508;45.118;20.728;2023-12-14T17:27:52;100177.69;;;11.93
82774;BMP280;72508;45.118;20.728;2023-12-14T17:37:54;100194.63;;;11.97
82774;BMP280;72508;45.118;20.728;2023-12-14T17:47:55;100220.03;;;11.96
82774;BMP280;72508;45.118;20.728;2023-12-14T17:57:57;100245.88;;;11.99
82774;BMP280;72508;45.118;20.728;2023-12-14T18:07:59;100249.63;;;12.03
82774;BMP280;72508;45.118;20.728;2023-12-14T18:18:01;100249.88;;;12.02
82774;BMP280;72508;45.118;20.728;2023-12-14T18:28:03;100252.72;;;12.00
82774;BMP280;72508;45.118;20.728;2023-12-14T18:38:05;100268.47;;;12.00
82774;BMP280;72508;45.118;20.728;2023-12-14T18:48:07;100279.78;;;12.01
82774;BMP280;72508;45.118;20.728;2023-12-14T18:58:09;100298.16;;;12.01
82774;BMP280;72508;45.118;20.728;2023-12-14T19:08:15;100307.75;;;11.88
82774;BMP280;72508;45.118;20.728;2023-12-14T19:18:16;100320.41;;;11.80
82774;BMP280;72508;45.118;20.728;2023-12-14T19:28:18;100337.22;;;11.91
82774;BMP280;72508;45.118;20.728;2023-12-14T19:38:20;100350.44;;;11.84
82774;BMP280;72508;45.118;20.728;2023-12-14T19:48:21;100378.97;;;11.80
82774;BMP280;72508;45.118;20.728;2023-12-14T19:58:23;100357.59;;;11.77
82774;BMP280;72508;45.118;20.728;2023-12-14T20:08:24;100356.41;;;11.73
82774;BMP280;72508;45.118;20.728;2023-12-14T20:18:26;100353.47;;;11.81
82774;BMP280;72508;45.118;20.728;2023-12-14T20:28:28;100378.47;;;11.65
82774;BMP280;72508;45.118;20.728;2023-12-14T20:38:30;100406.84;;;11.56
82774;BMP280;72508;45.118;20.728;2023-12-14T20:48:32;100430.06;;;11.53
82774;BMP280;72508;45.118;20.728;2023-12-14T20:58:34;100445.84;;;11.46
82774;BMP280;72508;45.118;20.728;2023-12-14T21:08:35;100446.41;;;11.23
82774;BMP280;72508;45.118;20.728;2023-12-14T21:18:37;100475.06;;;11.25
82774;BMP280;72508;45.118;20.728;2023-12-14T21:28:38;100492.38;;;11.26
82774;BMP280;72508;45.118;20.728;2023-12-14T21:38:40;100517.38;;;11.28
82774;BMP280;72508;45.118;20.728;2023-12-14T21:48:42;100542.38;;;11.31
82774;BMP280;72508;45.118;20.728;2023-12-14T21:58:43;100530.34;;;11.16
82774;BMP280;72508;45.118;20.728;2023-12-14T22:08:45;100535.56;;;11.23
82774;BMP280;72508;45.118;20.728;2023-12-14T22:18:47;100554.53;;;11.25
82774;BMP280;72508;45.118;20.728;2023-12-14T22:28:48;100581.97;;;11.22
82774;BMP280;72508;45.118;20.728;2023-12-14T22:38:51;100583.22;;;11.13
82774;BMP280;72508;45.118;20.728;2023-12-14T22:48:52;100605.78;;;11.14
82774;BMP280;72508;45.118;20.728;2023-12-14T22:58:55;100617.06;;;11.15
82774;BMP280;72508;45.118;20.728;2023-12-14T23:08:56;100648.72;;;11.20
82774;BMP280;72508;45.118;20.728;2023-12-14T23:18:58;100664.28;;;11.08
82774;BMP280;72508;45.118;20.728;2023-12-14T23:29:00;100674.78;;;11.01
82774;BMP280;72508;45.118;20.728;2023-12-14T23:39:02;100686.72;;;10.91
82774;BMP280;72508;45.118;20.728;2023-12-14T23:49:03;100694.97;;;10.88
82774;BMP280;72508;45.118;20.728;2023-12-14T23:59:05;100709.09;;;10.80
